Share

Ayr, ND

Home of the Absaraka Crows (KNDABSAR2) Elev 1066 ft | 46.98 °N, 97.39 °W | Change Station

Current weather conditions updated 4 seconds ago

Overcast
Overcast
46.2 °F
Feels Like 42 °F
N
7.6
Wind Variable Wind from North
Gusts 7.6 mph
Sunrise 6:31 AM
Sunset 8:27 PM
Moon Waning Gibbous

Today is forecast to be Much Cooler than yesterday.

Pressure 30.14 in
Visibility 10.0 miles
Clouds Overcast 1900 ft
Windchill 42 °F
Dew Point 37 °F
Humidity 69%
Rainfall 0.00 in
Snow Depth Not available.
UV 2 out of 16
Pollen 11.00 out of 12
Air Quality Not available.
Flu Activity Sporadic
METAR KBAC 211535Z AUTO 35021G24KT 10SM OVC019 07/01 A3014 RMK AO2

More Conditions Fewer Conditions

Pressure 30.14 in
Visibility 10.0 miles
Clouds Overcast 1900 ft
Windchill 42 °F
Dew Point 37 °F
Humidity 69%
Rainfall 0.00 in
Snow Depth Not available.
UV 2 out of 16
Pollen 11.00 out of 12
Air Quality Not available.
Flu Activity Sporadic
METAR KBAC 211535Z AUTO 35021G24KT 10SM OVC019 07/01 A3014 RMK AO2

More Conditions Fewer Conditions

10-Day Weather Forecast

Almanac

Astronomy

Apr. 21, 2014 Rise Set
Actual Time 6:31 AM CDT 8:27 PM CDT
Civil Twilight 5:58 AM CDT 9:00 PM CDT
Nautical Twilight 5:18 AM CDT 9:40 PM CDT
Astronomical Twilight 4:34 AM CDT 10:24 PM CDT
Moon 2:03 AM CDT 11:54 AM CDT
Length of Visible Light 15h 01m
Length of Day
13h 55m
Tomorrow will be 3m 8s longer.
Waning Gibbous, 58% of the Moon is Illuminated
Today
Waning Gibbous
Apr 22
Last Quarter
Apr 29
New
May 6
First Quarter
May 14
Full

Today's Extremes

State Highs State Lows

Community

  • Bright Eyes
    Bright Eyes
  • Snowy Robin
    Snowy Robin
  • Spring Crocus
    Spring Crocus
  • Sun Pillar and Geese
    Sun Pillar and Geese
  • Showers on the Way
    Showers on the Way

WunderPhotos

Upload Photos

1,703,667 photos uploaded!

Nearby

Snow Depth

Station Depth Elevation
No new snow has been reported.

Coastal Water Temperatures

Place Temperature
No Stations Reporting

Earthquake Activity

City Distance Mag. Time & Date
No recent earthquake activity has been reported nearby.
Minimum magnitude displayed is 2.5.

Nearby Weather Stations

Station Location Temp. Windchill Dew Point Humidity Wind Precip. Elev Updated Type
Home of the Absaraka Crows, Absaraka, ND 46.2 °F 42 °F 37 °F 69% North  at  7.6 mph 0.00 in / hr 1066 ft 10:55 AM CDT Rapid Fire
Valley City State University, Valley City, ND 45.0 °F 41 °F - 66% North  at  7.0 mph 0.00 in / hr 1220 ft 10:51 AM CDT Normal

Show More Stations Show Fewer Stations

What do you think?

We're not finished. Please let us know what you like, what you don't like, and what you are still missing.